createdAt,value
2019-04-28T00:00:55.700Z,7.40
2019-04-28T00:02:04.125Z,7.40
2019-04-28T00:03:10.897Z,7.40
2019-04-28T00:04:18.393Z,7.40
2019-04-28T00:05:25.508Z,7.40
2019-04-28T00:06:32.323Z,7.40
2019-04-28T00:07:41.007Z,7.30
2019-04-28T00:08:47.836Z,7.20
2019-04-28T00:09:54.943Z,7.20
2019-04-28T00:11:01.996Z,7.20
2019-04-28T00:12:11.281Z,7.20
2019-04-28T00:13:17.847Z,7.20
2019-04-28T00:14:24.589Z,7.10
2019-04-28T00:15:31.545Z,7.10
2019-04-28T00:16:38.710Z,7.10
2019-04-28T00:17:45.469Z,7.10
2019-04-28T00:18:52.598Z,7.10
2019-04-28T00:20:01.437Z,7.10
2019-04-28T00:21:15.413Z,7.10
2019-04-28T00:22:32.450Z,7.10
2019-04-28T00:23:56.215Z,7.00
2019-04-28T00:25:11.513Z,7.00
2019-04-28T00:26:37.774Z,7.00
2019-04-28T00:27:44.955Z,7.00
2019-04-28T00:28:51.717Z,7.10
2019-04-28T00:29:58.481Z,7.00
2019-04-28T00:31:05.806Z,7.00
2019-04-28T00:32:13.107Z,7.00
2019-04-28T00:33:19.848Z,7.00
2019-04-28T00:34:26.589Z,7.00
2019-04-28T00:35:35.236Z,7.00
2019-04-28T00:36:43.578Z,7.00
2019-04-28T00:37:51.695Z,7.00
2019-04-28T00:38:59.247Z,7.00
2019-04-28T00:40:10.958Z,7.00
2019-04-28T00:41:17.456Z,7.00
2019-04-28T00:42:24.203Z,7.00
2019-04-28T00:43:31.808Z,7.10
2019-04-28T00:44:39.047Z,7.10
2019-04-28T00:45:45.789Z,7.10
2019-04-28T00:46:52.889Z,7.10
2019-04-28T00:48:00.987Z,7.10
2019-04-28T00:49:08.050Z,7.20
2019-04-28T00:50:15.286Z,7.20
2019-04-28T00:51:22.363Z,7.20
2019-04-28T00:52:29.618Z,7.20
2019-04-28T00:53:36.723Z,7.20
2019-04-28T00:54:43.479Z,7.20
2019-04-28T00:55:51.622Z,7.30
2019-04-28T00:56:58.662Z,7.30
2019-04-28T00:58:05.413Z,7.30
2019-04-28T00:59:12.617Z,7.40
2019-04-28T01:00:23.052Z,7.40
2019-04-28T01:01:42.705Z,7.40
2019-04-28T01:02:50.972Z,7.40
2019-04-28T01:03:59.180Z,7.50
2019-04-28T01:05:07.652Z,7.50
2019-04-28T01:06:14.395Z,7.50
2019-04-28T01:07:21.369Z,7.50
2019-04-28T01:08:28.182Z,7.50
2019-04-28T01:09:35.247Z,7.50
2019-04-28T01:10:42.333Z,7.50
2019-04-28T01:11:49.074Z,7.50
2019-04-28T01:12:56.173Z,7.50
2019-04-28T01:14:02.908Z,7.50
2019-04-28T01:15:17.471Z,7.50
2019-04-28T01:16:34.447Z,7.50
2019-04-28T01:18:03.910Z,7.50
2019-04-28T01:19:20.211Z,7.50
2019-04-28T01:20:29.602Z,7.50
2019-04-28T01:22:10.381Z,7.50
2019-04-28T01:23:17.454Z,7.50
2019-04-28T01:24:24.201Z,7.50
2019-04-28T01:25:31.705Z,7.50
2019-04-28T01:26:39.163Z,7.40
2019-04-28T01:27:54.681Z,7.40
2019-04-28T01:29:01.817Z,7.40
2019-04-28T01:30:14.814Z,7.40
2019-04-28T01:31:44.770Z,7.30
2019-04-28T01:32:57.621Z,7.30
2019-04-28T01:34:23.221Z,7.20
2019-04-28T01:35:30.315Z,7.20
2019-04-28T01:36:39.856Z,7.10
2019-04-28T01:37:46.731Z,7.10
2019-04-28T01:38:53.829Z,7.10
2019-04-28T01:40:00.626Z,7.10
2019-04-28T01:41:09.694Z,7.10
2019-04-28T01:42:16.514Z,7.10
2019-04-28T01:43:23.563Z,7.10
2019-04-28T01:44:30.646Z,7.10
2019-04-28T01:45:37.599Z,7.10
2019-04-28T01:46:44.376Z,7.10
2019-04-28T01:47:51.138Z,7.10
2019-04-28T01:48:59.783Z,7.10
2019-04-28T01:50:07.018Z,7.10
2019-04-28T01:51:14.248Z,7.10
2019-04-28T01:52:20.980Z,7.10
2019-04-28T01:53:27.730Z,7.10
2019-04-28T01:54:34.469Z,7.10
2019-04-28T01:55:41.546Z,7.10
2019-04-28T01:56:50.167Z,7.10
2019-04-28T01:57:57.131Z,7.10
2019-04-28T01:59:03.883Z,7.10
2019-04-28T02:00:22.305Z,7.10
2019-04-28T02:01:21.471Z,7.10
2019-04-28T02:02:30.051Z,7.10
2019-04-28T02:03:37.268Z,7.10
2019-04-28T02:04:44.096Z,7.10
2019-04-28T02:05:51.181Z,7.10
2019-04-28T02:06:59.803Z,7.10
2019-04-28T02:08:07.075Z,7.00
2019-04-28T02:09:13.852Z,7.00
2019-04-28T02:10:21.857Z,7.00
2019-04-28T02:11:29.584Z,7.00
2019-04-28T02:12:36.459Z,6.90
2019-04-28T02:13:43.594Z,6.90
2019-04-28T02:14:52.169Z,6.90
2019-04-28T02:16:00.033Z,6.80
2019-04-28T02:17:07.226Z,6.80
2019-04-28T02:18:14.361Z,6.80
2019-04-28T02:19:21.437Z,6.80
2019-04-28T02:20:30.011Z,6.70
2019-04-28T02:21:59.390Z,6.80
2019-04-28T02:23:14.772Z,6.80
2019-04-28T02:24:31.982Z,6.70
2019-04-28T02:25:39.879Z,6.70
2019-04-28T02:26:46.878Z,6.80
2019-04-28T02:27:56.964Z,6.70
2019-04-28T02:29:02.918Z,6.80
2019-04-28T02:30:11.513Z,6.80
2019-04-28T02:31:24.057Z,6.90
2019-04-28T02:32:30.589Z,6.90
2019-04-28T02:33:36.285Z,6.90
2019-04-28T02:34:43.201Z,6.90
2019-04-28T02:35:51.071Z,6.90
2019-04-28T02:37:01.012Z,6.90
2019-04-28T02:38:06.472Z,6.90
2019-04-28T02:39:13.206Z,6.90
2019-04-28T02:40:20.882Z,6.90
2019-04-28T02:41:30.645Z,7.00
2019-04-28T02:42:36.648Z,7.00
2019-04-28T02:43:43.381Z,6.90
2019-04-28T02:44:50.931Z,6.90
2019-04-28T02:46:00.696Z,6.90
2019-04-28T02:47:10.752Z,6.90
2019-04-28T02:48:21.830Z,6.90
2019-04-28T02:49:47.098Z,6.80
2019-04-28T02:51:05.309Z,6.80
2019-04-28T02:52:22.603Z,6.80
2019-04-28T02:53:33.621Z,6.70
2019-04-28T02:54:40.689Z,6.70
2019-04-28T02:55:47.548Z,6.70
2019-04-28T02:56:54.574Z,6.60
2019-04-28T02:58:01.647Z,6.60
2019-04-28T02:59:10.985Z,6.60
2019-04-28T03:00:21.301Z,6.60
2019-04-28T03:01:27.349Z,6.50
2019-04-28T03:02:34.458Z,6.50
2019-04-28T03:03:41.196Z,6.50
2019-04-28T03:04:50.603Z,6.40
2019-04-28T03:05:57.132Z,6.40
2019-04-28T03:07:04.216Z,6.30
2019-04-28T03:08:11.223Z,6.30
2019-04-28T03:09:20.254Z,6.30
2019-04-28T03:10:26.693Z,6.20
2019-04-28T03:11:33.928Z,6.30
2019-04-28T03:12:41.619Z,6.20
2019-04-28T03:13:50.856Z,6.20
2019-04-28T03:14:57.003Z,6.20
2019-04-28T03:16:03.723Z,6.20
2019-04-28T03:17:11.098Z,6.20
2019-04-28T03:18:18.089Z,6.20
2019-04-28T03:19:25.190Z,6.20
2019-04-28T03:20:32.211Z,6.10
2019-04-28T03:21:41.595Z,6.20
2019-04-28T03:22:50.809Z,6.10
2019-04-28T03:23:56.777Z,6.10
2019-04-28T03:25:05.532Z,6.20
2019-04-28T03:26:37.134Z,6.20
2019-04-28T03:27:55.702Z,6.20
2019-04-28T03:29:10.864Z,6.20
2019-04-28T03:30:35.930Z,6.20
2019-04-28T03:32:16.104Z,6.20
2019-04-28T03:33:11.564Z,6.20
2019-04-28T03:34:14.313Z,6.20
2019-04-28T03:35:22.845Z,6.10
2019-04-28T03:36:32.999Z,6.10
2019-04-28T03:37:41.161Z,6.10
2019-04-28T03:38:47.079Z,6.10
2019-04-28T03:39:53.840Z,6.10
2019-04-28T03:41:01.216Z,6.10
2019-04-28T03:42:11.462Z,6.10
2019-04-28T03:43:17.209Z,6.10
2019-04-28T03:44:24.323Z,6.10
2019-04-28T03:45:36.461Z,6.10
2019-04-28T03:46:51.152Z,6.10
2019-04-28T03:48:00.212Z,6.10
2019-04-28T03:49:06.576Z,6.10
2019-04-28T03:50:13.518Z,6.20
2019-04-28T03:51:21.298Z,6.10
2019-04-28T03:52:28.489Z,6.20
2019-04-28T03:53:35.600Z,6.20
2019-04-28T03:54:42.314Z,6.10
2019-04-28T03:55:51.353Z,6.20
2019-04-28T03:56:57.474Z,6.10
2019-04-28T03:58:04.265Z,6.10
2019-04-28T03:59:11.299Z,6.10
2019-04-28T04:00:18.685Z,6.10
2019-04-28T04:01:25.860Z,6.10
2019-04-28T04:02:32.620Z,6.10
2019-04-28T04:03:41.750Z,6.10
2019-04-28T04:04:48.139Z,6.10
2019-04-28T04:05:54.900Z,6.10
2019-04-28T04:07:01.987Z,6.10
2019-04-28T04:08:10.951Z,6.10
2019-04-28T04:09:17.237Z,6.00
2019-04-28T04:10:34.126Z,6.10
2019-04-28T04:11:45.036Z,6.10
2019-04-28T04:13:01.887Z,6.00
2019-04-28T04:14:24.324Z,6.00
2019-04-28T04:15:50.533Z,6.10
2019-04-28T04:17:05.415Z,6.10
2019-04-28T04:18:16.529Z,6.10
2019-04-28T04:19:23.367Z,6.10
2019-04-28T04:20:31.182Z,6.10
2019-04-28T04:21:40.562Z,6.10
2019-04-28T04:22:46.916Z,6.10
2019-04-28T04:23:54.066Z,6.20
2019-04-28T04:25:01.445Z,6.20
2019-04-28T04:26:11.492Z,6.20
2019-04-28T04:27:17.015Z,6.30
2019-04-28T04:28:23.786Z,6.30
2019-04-28T04:29:31.037Z,6.30
2019-04-28T04:30:40.567Z,6.30
2019-04-28T04:31:46.659Z,6.40
2019-04-28T04:32:53.426Z,6.30
2019-04-28T04:34:02.841Z,6.40
2019-04-28T04:35:10.401Z,6.50
2019-04-28T04:36:17.693Z,6.50
2019-04-28T04:37:24.500Z,6.50
2019-04-28T04:38:31.581Z,6.50
2019-04-28T04:39:40.751Z,6.60
2019-04-28T04:40:47.386Z,6.60
2019-04-28T04:41:54.516Z,6.70
2019-04-28T04:43:02.025Z,6.70
2019-04-28T04:44:11.189Z,6.70
2019-04-28T04:45:20.274Z,6.80
2019-04-28T04:46:27.251Z,6.80
2019-04-28T04:47:34.095Z,6.80
2019-04-28T04:48:41.401Z,6.90
2019-04-28T04:49:50.321Z,6.90
2019-04-28T04:50:56.578Z,6.90
2019-04-28T04:52:03.360Z,6.90
2019-04-28T04:53:10.996Z,7.00
2019-04-28T04:54:20.530Z,7.00
2019-04-28T04:55:27.364Z,7.00
2019-04-28T04:56:34.118Z,7.10
2019-04-28T04:57:41.307Z,7.10
2019-04-28T04:58:50.289Z,7.00
2019-04-28T04:59:56.968Z,7.10
2019-04-28T05:01:30.313Z,7.10
2019-04-28T05:03:03.235Z,7.20
2019-04-28T05:04:34.990Z,7.20
2019-04-28T05:05:42.690Z,7.20
2019-04-28T05:06:49.807Z,7.30
2019-04-28T05:07:56.892Z,7.30
2019-04-28T05:09:05.898Z,7.30
2019-04-28T05:10:12.954Z,7.30
2019-04-28T05:11:20.186Z,7.40
2019-04-28T05:12:27.301Z,7.40
2019-04-28T05:13:34.049Z,7.40
2019-04-28T05:14:41.099Z,7.40
2019-04-28T05:15:47.987Z,7.40
2019-04-28T05:16:55.049Z,7.50
2019-04-28T05:18:01.819Z,7.50
2019-04-28T05:19:10.182Z,7.50
2019-04-28T05:20:17.499Z,7.50
2019-04-28T05:21:25.001Z,7.50
2019-04-28T05:22:34.299Z,7.50
2019-04-28T05:24:09.219Z,7.50
2019-04-28T05:25:37.373Z,7.50
2019-04-28T05:26:47.615Z,7.50
2019-04-28T05:27:54.574Z,7.50
2019-04-28T05:29:01.946Z,7.50
2019-04-28T05:30:10.431Z,7.50
2019-04-28T05:31:23.389Z,7.50
2019-04-28T05:32:39.222Z,7.60
2019-04-28T05:33:35.800Z,7.60
2019-04-28T05:34:46.751Z,7.70
2019-04-28T05:35:54.560Z,7.70
2019-04-28T05:37:00.707Z,7.70
2019-04-28T05:38:07.863Z,7.80
2019-04-28T05:39:15.033Z,7.80
2019-04-28T05:40:22.167Z,7.80
2019-04-28T05:41:29.613Z,7.80
2019-04-28T05:42:36.474Z,7.80
2019-04-28T05:43:43.913Z,7.90
2019-04-28T05:44:51.017Z,7.90
2019-04-28T05:45:57.747Z,7.90
2019-04-28T05:47:04.517Z,7.90
2019-04-28T05:48:11.817Z,8.00
2019-04-28T05:49:52.831Z,8.00
2019-04-28T05:51:04.624Z,8.00
2019-04-28T05:52:30.013Z,8.10
2019-04-28T05:53:44.926Z,8.10
2019-04-28T05:54:56.878Z,8.10
2019-04-28T05:56:10.529Z,8.10
2019-04-28T05:57:22.178Z,8.20
2019-04-28T05:58:45.636Z,8.20
2019-04-28T06:00:06.351Z,8.30
2019-04-28T06:01:32.032Z,8.30
2019-04-28T06:02:55.493Z,8.30
2019-04-28T06:03:50.947Z,8.30
2019-04-28T06:04:59.854Z,8.40
2019-04-28T06:06:06.454Z,8.30
2019-04-28T06:07:20.759Z,8.30
2019-04-28T06:08:45.014Z,8.40
2019-04-28T06:09:53.742Z,8.40
2019-04-28T06:11:02.120Z,8.40
2019-04-28T06:12:11.338Z,8.40
2019-04-28T06:13:20.069Z,8.50
2019-04-28T06:14:26.994Z,8.50
2019-04-28T06:15:33.735Z,8.50
2019-04-28T06:16:40.915Z,8.50
2019-04-28T06:17:47.662Z,8.50
2019-04-28T06:18:54.482Z,8.60
2019-04-28T06:20:01.237Z,8.60
2019-04-28T06:21:08.342Z,8.60
2019-04-28T06:22:17.741Z,8.70
2019-04-28T06:23:23.887Z,8.70
2019-04-28T06:24:30.652Z,8.80
2019-04-28T06:25:37.778Z,8.70
2019-04-28T06:26:44.879Z,8.70
2019-04-28T06:27:51.957Z,8.70
2019-04-28T06:28:58.716Z,8.80
2019-04-28T06:30:06.899Z,8.80
2019-04-28T06:31:13.777Z,8.90
2019-04-28T06:32:20.646Z,9.00
2019-04-28T06:33:28.453Z,9.10
2019-04-28T06:34:35.537Z,9.20
2019-04-28T06:35:42.664Z,9.20
2019-04-28T06:36:49.525Z,9.30
2019-04-28T06:37:56.977Z,9.40
2019-04-28T06:39:04.507Z,9.40
2019-04-28T06:40:11.649Z,9.40
2019-04-28T06:41:19.105Z,9.50
2019-04-28T06:42:26.397Z,9.50
2019-04-28T06:43:33.468Z,9.50
2019-04-28T06:44:40.200Z,9.50
2019-04-28T06:45:47.069Z,9.50
2019-04-28T06:46:54.138Z,9.60
2019-04-28T06:48:01.299Z,9.70
2019-04-28T06:49:08.502Z,9.90
2019-04-28T06:50:15.800Z,9.80
2019-04-28T06:51:22.599Z,9.90
2019-04-28T06:52:29.828Z,10.00
2019-04-28T06:53:36.903Z,10.00
2019-04-28T06:54:43.637Z,10.00
2019-04-28T06:55:50.418Z,10.00
2019-04-28T06:56:57.181Z,10.00
2019-04-28T06:58:04.311Z,10.00
2019-04-28T06:59:11.389Z,10.00
2019-04-28T07:00:19.181Z,10.00
2019-04-28T07:01:26.356Z,10.10
2019-04-28T07:02:33.107Z,10.10
2019-04-28T07:03:40.231Z,10.10
2019-04-28T07:04:46.978Z,10.20
2019-04-28T07:05:53.745Z,10.20
2019-04-28T07:07:00.589Z,10.30
2019-04-28T07:08:07.359Z,10.30
2019-04-28T07:09:14.534Z,10.40
2019-04-28T07:10:21.328Z,10.50
2019-04-28T07:11:28.444Z,10.50
2019-04-28T07:12:35.195Z,10.60
2019-04-28T07:13:42.263Z,10.70
2019-04-28T07:14:49.105Z,10.80
2019-04-28T07:15:55.905Z,10.90
2019-04-28T07:17:03.116Z,10.90
2019-04-28T07:18:10.207Z,10.90
2019-04-28T07:19:17.563Z,10.90
2019-04-28T07:20:43.175Z,10.90
2019-04-28T07:22:08.859Z,10.90
2019-04-28T07:23:16.044Z,10.80
2019-04-28T07:24:22.882Z,10.70
2019-04-28T07:25:29.624Z,10.70
2019-04-28T07:26:36.427Z,10.70
2019-04-28T07:27:43.203Z,10.70
2019-04-28T07:28:50.404Z,10.70
2019-04-28T07:29:57.272Z,10.80
2019-04-28T07:31:04.200Z,10.90
2019-04-28T07:32:11.262Z,10.90
2019-04-28T07:33:18.444Z,10.80
2019-04-28T07:34:25.523Z,10.90
2019-04-28T07:35:32.905Z,10.90
2019-04-28T07:36:40.074Z,11.00
2019-04-28T07:37:47.469Z,11.00
2019-04-28T07:38:54.246Z,11.00
2019-04-28T07:40:01.008Z,11.00
2019-04-28T07:41:08.191Z,11.10
2019-04-28T07:42:15.103Z,11.10
2019-04-28T07:43:21.857Z,11.20
2019-04-28T07:44:28.916Z,11.20
2019-04-28T07:45:36.415Z,11.10
2019-04-28T07:46:43.203Z,11.10
2019-04-28T07:47:50.332Z,11.10
2019-04-28T07:48:57.096Z,11.10
2019-04-28T07:50:04.463Z,11.10
2019-04-28T07:51:11.226Z,11.10
2019-04-28T07:52:24.794Z,11.20
2019-04-28T07:53:39.676Z,11.30
2019-04-28T07:54:46.839Z,11.50
2019-04-28T07:55:53.902Z,11.70
2019-04-28T07:57:00.690Z,11.80
2019-04-28T07:58:07.866Z,11.80
2019-04-28T07:59:14.993Z,11.90
2019-04-28T08:00:27.849Z,11.90
2019-04-28T08:01:34.837Z,11.80
2019-04-28T08:02:42.651Z,11.80
2019-04-28T08:03:50.066Z,11.80
2019-04-28T08:04:57.721Z,11.70
2019-04-28T08:06:05.117Z,11.80
2019-04-28T08:07:11.994Z,11.80
2019-04-28T08:08:19.549Z,11.90
2019-04-28T08:09:26.731Z,12.00
2019-04-28T08:10:33.548Z,12.10
2019-04-28T08:11:40.525Z,12.30
2019-04-28T08:12:49.242Z,12.30
2019-04-28T08:13:56.075Z,12.30
2019-04-28T08:15:03.099Z,12.30
2019-04-28T08:16:10.040Z,12.40
2019-04-28T08:17:17.150Z,12.50
2019-04-28T08:18:24.845Z,12.50
2019-04-28T08:19:32.238Z,12.50
2019-04-28T08:20:39.380Z,12.40
2019-04-28T08:21:46.450Z,12.40
2019-04-28T08:22:53.931Z,12.50
2019-04-28T08:24:00.706Z,12.50
2019-04-28T08:25:08.363Z,12.60
2019-04-28T08:26:15.238Z,12.70
2019-04-28T08:27:22.785Z,12.70
2019-04-28T08:28:29.965Z,12.80
2019-04-28T08:29:36.816Z,12.80
2019-04-28T08:30:43.692Z,12.90
2019-04-28T08:32:00.467Z,12.80
2019-04-28T08:33:20.746Z,12.80
2019-04-28T08:34:27.594Z,12.80
2019-04-28T08:35:34.810Z,12.80
2019-04-28T08:36:42.054Z,12.70
2019-04-28T08:37:50.404Z,12.80
2019-04-28T08:38:57.728Z,12.90
2019-04-28T08:40:05.460Z,12.80
2019-04-28T08:41:13.204Z,12.80
2019-04-28T08:42:20.413Z,12.80
2019-04-28T08:43:27.768Z,12.80
2019-04-28T08:44:35.070Z,12.80
2019-04-28T08:45:42.219Z,12.80
2019-04-28T08:46:50.012Z,12.90
2019-04-28T08:47:58.080Z,12.80
2019-04-28T08:49:05.372Z,12.90
2019-04-28T08:50:13.478Z,12.90
2019-04-28T08:51:20.410Z,13.00
2019-04-28T08:52:27.897Z,13.10
2019-04-28T08:53:34.869Z,13.30
2019-04-28T08:54:41.760Z,13.40
2019-04-28T08:55:49.643Z,13.40
2019-04-28T08:56:56.479Z,13.40
2019-04-28T08:58:03.327Z,13.30
2019-04-28T08:59:10.351Z,13.20
2019-04-28T09:00:18.953Z,13.10
2019-04-28T09:01:25.878Z,13.30
2019-04-28T09:02:33.296Z,13.40
2019-04-28T09:03:40.303Z,13.40
2019-04-28T09:04:47.743Z,13.40
2019-04-28T09:05:54.878Z,13.40
2019-04-28T09:07:02.342Z,13.40
2019-04-28T09:08:09.507Z,13.50
2019-04-28T09:09:17.701Z,13.60
2019-04-28T09:10:24.911Z,13.70
2019-04-28T09:11:32.007Z,13.80
2019-04-28T09:12:38.953Z,13.80
2019-04-28T09:13:46.534Z,13.80
2019-04-28T09:14:53.674Z,14.00
2019-04-28T09:16:01.609Z,14.10
2019-04-28T09:17:08.964Z,14.00
2019-04-28T09:18:16.073Z,14.00
2019-04-28T09:19:23.416Z,13.90
2019-04-28T09:20:30.531Z,13.80
2019-04-28T09:21:37.657Z,13.80
2019-04-28T09:22:44.451Z,13.70
2019-04-28T09:23:51.727Z,13.70
2019-04-28T09:24:58.978Z,13.70
2019-04-28T09:26:06.109Z,13.80
2019-04-28T09:27:13.015Z,13.80
2019-04-28T09:28:20.330Z,13.90
2019-04-28T09:29:27.081Z,14.10
2019-04-28T09:30:34.185Z,14.10
2019-04-28T09:31:40.976Z,14.10
2019-04-28T09:32:48.207Z,14.00
2019-04-28T09:33:54.951Z,13.90
2019-04-28T09:35:01.708Z,13.70
2019-04-28T09:36:08.510Z,13.60
2019-04-28T09:37:15.627Z,13.50
2019-04-28T09:38:22.700Z,13.20
2019-04-28T09:39:52.005Z,13.00
2019-04-28T09:40:58.762Z,13.00
2019-04-28T09:42:39.703Z,12.90
2019-04-28T09:44:11.369Z,13.00
2019-04-28T09:45:21.193Z,12.90
2019-04-28T09:46:33.390Z,12.90
2019-04-28T09:47:40.752Z,12.90
2019-04-28T09:48:47.835Z,12.80
2019-04-28T09:49:54.889Z,12.80
2019-04-28T09:51:01.952Z,12.80
2019-04-28T09:52:09.341Z,12.80
2019-04-28T09:53:16.428Z,12.70
2019-04-28T09:54:23.174Z,12.70
2019-04-28T09:55:29.978Z,12.80
2019-04-28T09:56:37.229Z,12.80
2019-04-28T09:57:43.996Z,12.90
2019-04-28T09:58:50.880Z,13.00
2019-04-28T09:59:58.022Z,13.00
2019-04-28T10:01:05.112Z,13.10
2019-04-28T10:02:12.334Z,13.20
2019-04-28T10:03:19.287Z,13.40
2019-04-28T10:04:26.580Z,13.50
2019-04-28T10:05:33.504Z,13.50
2019-04-28T10:06:40.657Z,13.40
2019-04-28T10:07:47.932Z,13.40
2019-04-28T10:08:55.593Z,13.50
2019-04-28T10:10:02.405Z,13.60
2019-04-28T10:11:09.170Z,13.80
2019-04-28T10:12:26.574Z,13.90
2019-04-28T10:13:25.243Z,13.90
2019-04-28T10:14:33.175Z,14.00
2019-04-28T10:15:39.928Z,14.20
2019-04-28T10:16:47.506Z,14.30
2019-04-28T10:17:54.450Z,14.40
2019-04-28T10:19:01.573Z,14.40
2019-04-28T10:20:09.296Z,14.20
2019-04-28T10:21:16.463Z,14.10
2019-04-28T10:22:23.303Z,13.90
2019-04-28T10:23:30.182Z,13.70
2019-04-28T10:24:37.706Z,13.70
2019-04-28T10:25:44.768Z,13.50
2019-04-28T10:26:51.490Z,13.40
2019-04-28T10:27:58.619Z,13.40
2019-04-28T10:29:05.899Z,13.50
2019-04-28T10:30:13.615Z,13.30
2019-04-28T10:31:20.693Z,13.40
2019-04-28T10:32:27.479Z,13.40
2019-04-28T10:33:34.258Z,13.20
2019-04-28T10:34:54.055Z,13.10
2019-04-28T10:35:49.591Z,13.00
2019-04-28T10:36:56.775Z,12.80
2019-04-28T10:38:03.570Z,12.60
2019-04-28T10:39:31.159Z,12.50
2019-04-28T10:40:47.469Z,12.50
2019-04-28T10:41:54.598Z,12.50
2019-04-28T10:43:01.788Z,12.50
2019-04-28T10:44:09.020Z,12.40
2019-04-28T10:45:19.671Z,12.40
2019-04-28T10:46:26.524Z,12.30
2019-04-28T10:47:33.661Z,12.30
2019-04-28T10:48:40.740Z,12.20
2019-04-28T10:49:47.487Z,12.20
2019-04-28T10:50:54.691Z,12.20
2019-04-28T10:52:01.979Z,12.20
2019-04-28T10:53:08.755Z,12.20
2019-04-28T10:54:15.603Z,12.20
2019-04-28T10:55:22.366Z,12.20
2019-04-28T10:56:29.698Z,12.20
2019-04-28T10:57:36.966Z,12.10
2019-04-28T10:58:45.655Z,12.10
2019-04-28T10:59:52.407Z,12.10
2019-04-28T11:00:59.522Z,12.10
2019-04-28T11:02:06.310Z,12.10
2019-04-28T11:03:13.378Z,12.10
2019-04-28T11:04:38.275Z,12.00
2019-04-28T11:05:45.877Z,12.00
2019-04-28T11:06:52.621Z,12.00
2019-04-28T11:07:59.842Z,12.00
2019-04-28T11:09:30.124Z,12.00
2019-04-28T11:10:27.755Z,12.00
2019-04-28T11:11:34.803Z,12.00
2019-04-28T11:12:41.630Z,11.90
2019-04-28T11:13:48.727Z,12.00
2019-04-28T11:14:55.758Z,12.10
2019-04-28T11:16:02.643Z,12.10
2019-04-28T11:17:09.426Z,12.10
2019-04-28T11:18:17.218Z,12.10
2019-04-28T11:19:24.320Z,12.10
2019-04-28T11:20:31.102Z,12.10
2019-04-28T11:21:37.858Z,12.00
2019-04-28T11:22:44.942Z,11.90
2019-04-28T11:23:52.182Z,11.90
2019-04-28T11:24:58.933Z,11.90
2019-04-28T11:26:05.954Z,12.00
2019-04-28T11:27:12.795Z,12.10
2019-04-28T11:28:19.540Z,12.20
2019-04-28T11:29:26.346Z,12.30
2019-04-28T11:30:33.932Z,12.50
2019-04-28T11:31:40.755Z,12.70
2019-04-28T11:32:59.039Z,12.60
2019-04-28T11:34:23.948Z,12.60
2019-04-28T11:35:31.766Z,12.70
2019-04-28T11:36:38.557Z,12.90
2019-04-28T11:37:45.314Z,12.90
2019-04-28T11:38:52.710Z,13.00
2019-04-28T11:39:59.798Z,13.00
2019-04-28T11:41:07.479Z,13.10
2019-04-28T11:42:14.913Z,13.20
2019-04-28T11:43:22.053Z,13.30
2019-04-28T11:44:28.798Z,13.20
2019-04-28T11:45:35.952Z,13.20
2019-04-28T11:46:42.759Z,13.10
2019-04-28T11:47:49.524Z,13.00
2019-04-28T11:48:56.269Z,13.00
2019-04-28T11:50:03.065Z,13.00
2019-04-28T11:51:09.930Z,13.10
2019-04-28T11:52:17.216Z,13.10
2019-04-28T11:53:24.497Z,13.10
2019-04-28T11:54:31.705Z,13.10
2019-04-28T11:55:38.485Z,13.20
2019-04-28T11:56:45.251Z,13.30
2019-04-28T11:57:52.007Z,13.40
2019-04-28T11:58:58.900Z,13.50
2019-04-28T12:00:12.578Z,13.60
2019-04-28T12:01:20.330Z,13.70
2019-04-28T12:02:27.402Z,13.70
2019-04-28T12:03:34.220Z,13.70
2019-04-28T12:04:41.021Z,13.90
2019-04-28T12:05:48.333Z,14.10
2019-04-28T12:06:55.416Z,14.20
2019-04-28T12:08:02.226Z,14.40
2019-04-28T12:09:40.416Z,14.20
2019-04-28T12:10:53.039Z,14.10
2019-04-28T12:12:00.314Z,13.70
2019-04-28T12:13:17.608Z,13.60
2019-04-28T12:14:43.441Z,13.60
2019-04-28T12:16:09.331Z,13.50
2019-04-28T12:17:31.735Z,13.20
2019-04-28T12:19:09.772Z,13.00
2019-04-28T12:20:19.718Z,12.90
2019-04-28T12:21:26.483Z,12.80
2019-04-28T12:22:33.460Z,12.80
2019-04-28T12:23:40.260Z,12.80
2019-04-28T12:24:47.454Z,12.80
2019-04-28T12:25:55.020Z,12.50
2019-04-28T12:27:01.798Z,12.30
2019-04-28T12:28:08.954Z,12.20
2019-04-28T12:29:15.725Z,12.20
2019-04-28T12:30:23.022Z,12.20
2019-04-28T12:31:30.216Z,12.00
2019-04-28T12:32:37.350Z,12.00
2019-04-28T12:33:44.464Z,12.00
2019-04-28T12:34:51.543Z,11.80
2019-04-28T12:35:58.389Z,11.90
2019-04-28T12:37:05.142Z,11.80
2019-04-28T12:38:12.272Z,11.80
2019-04-28T12:39:19.352Z,11.90
2019-04-28T12:40:26.404Z,11.80
2019-04-28T12:41:33.610Z,11.80
2019-04-28T12:42:40.367Z,11.80
2019-04-28T12:43:47.107Z,11.90
2019-04-28T12:44:53.876Z,11.90
2019-04-28T12:46:00.772Z,11.80
2019-04-28T12:47:07.899Z,11.90
2019-04-28T12:48:14.960Z,11.80
2019-04-28T12:49:27.232Z,11.80
2019-04-28T12:50:39.842Z,11.70
2019-04-28T12:51:47.039Z,11.70
2019-04-28T12:52:54.108Z,11.60
2019-04-28T12:54:04.983Z,11.50
2019-04-28T12:55:12.538Z,11.40
2019-04-28T12:56:19.288Z,11.50
2019-04-28T12:57:26.068Z,11.50
2019-04-28T12:58:32.880Z,11.60
2019-04-28T12:59:45.289Z,11.70
2019-04-28T13:01:15.248Z,11.70
2019-04-28T13:02:50.125Z,11.80
2019-04-28T13:04:09.166Z,11.80
2019-04-28T13:05:16.353Z,11.80
2019-04-28T13:06:23.182Z,11.70
2019-04-28T13:07:29.968Z,11.70
2019-04-28T13:08:36.799Z,11.60
2019-04-28T13:09:44.067Z,11.50
2019-04-28T13:10:50.888Z,11.50
2019-04-28T13:11:57.714Z,11.40
2019-04-28T13:13:04.502Z,11.50
2019-04-28T13:14:11.269Z,11.60
2019-04-28T13:15:18.408Z,11.70
2019-04-28T13:16:25.593Z,11.70
2019-04-28T13:17:32.453Z,11.90
2019-04-28T13:18:39.994Z,12.00
2019-04-28T13:19:46.733Z,12.00
2019-04-28T13:20:53.629Z,12.20
2019-04-28T13:22:00.425Z,12.20
2019-04-28T13:23:07.233Z,12.20
2019-04-28T13:24:14.798Z,12.20
2019-04-28T13:25:21.934Z,12.20
2019-04-28T13:26:28.698Z,12.20
2019-04-28T13:27:35.512Z,12.30
2019-04-28T13:28:42.334Z,12.30
2019-04-28T13:29:49.106Z,12.30
2019-04-28T13:30:55.873Z,12.40
2019-04-28T13:32:02.746Z,12.40
2019-04-28T13:33:09.488Z,12.30
2019-04-28T13:34:18.139Z,12.40
2019-04-28T13:35:25.255Z,12.50
2019-04-28T13:36:33.201Z,12.50
2019-04-28T13:37:39.966Z,12.50
2019-04-28T13:38:46.739Z,12.60
2019-04-28T13:40:03.272Z,12.60
2019-04-28T13:41:10.020Z,12.60
2019-04-28T13:42:16.772Z,12.60
2019-04-28T13:43:23.887Z,12.60
2019-04-28T13:44:52.782Z,12.50
2019-04-28T13:45:59.648Z,12.40
2019-04-28T13:47:07.583Z,12.40
2019-04-28T13:48:14.739Z,12.50
2019-04-28T13:49:23.164Z,12.50
2019-04-28T13:50:36.862Z,12.60
2019-04-28T13:51:43.966Z,12.70
2019-04-28T13:52:51.376Z,12.90
2019-04-28T13:53:58.131Z,13.00
2019-04-28T13:55:16.100Z,13.20
2019-04-28T13:56:22.915Z,13.20
2019-04-28T13:57:30.072Z,13.30
2019-04-28T13:58:39.834Z,13.30
2019-04-28T13:59:47.785Z,13.30
2019-04-28T14:01:16.464Z,13.30
2019-04-28T14:02:41.727Z,13.20
2019-04-28T14:04:10.375Z,13.10
2019-04-28T14:05:39.316Z,13.20
2019-04-28T14:06:49.662Z,13.00
2019-04-28T14:07:56.819Z,13.00
2019-04-28T14:09:03.658Z,13.00
2019-04-28T14:10:11.215Z,13.00
2019-04-28T14:11:17.962Z,13.00
2019-04-28T14:12:24.772Z,13.10
2019-04-28T14:13:31.522Z,13.10
2019-04-28T14:14:38.304Z,13.20
2019-04-28T14:15:48.373Z,13.10
2019-04-28T14:16:53.915Z,13.00
2019-04-28T14:18:00.733Z,12.70
2019-04-28T14:19:07.519Z,12.60
2019-04-28T14:20:14.671Z,12.50
2019-04-28T14:21:21.867Z,12.50
2019-04-28T14:22:28.736Z,12.70
2019-04-28T14:23:35.876Z,12.90
2019-04-28T14:24:42.920Z,12.90
2019-04-28T14:25:50.034Z,12.90
2019-04-28T14:26:56.857Z,13.00
2019-04-28T14:28:03.679Z,13.10
2019-04-28T14:29:10.856Z,13.00
2019-04-28T14:30:18.095Z,13.00
2019-04-28T14:31:25.220Z,13.10
2019-04-28T14:32:32.780Z,13.30
2019-04-28T14:33:39.959Z,13.50
2019-04-28T14:34:47.062Z,13.70
2019-04-28T14:35:53.946Z,13.70
2019-04-28T14:37:01.250Z,13.60
2019-04-28T14:38:08.370Z,13.50
2019-04-28T14:39:15.228Z,13.50
2019-04-28T14:40:22.194Z,13.70
2019-04-28T14:41:29.506Z,13.70
2019-04-28T14:42:36.583Z,13.70
2019-04-28T14:43:43.676Z,13.60
2019-04-28T14:44:50.430Z,13.40
2019-04-28T14:45:57.760Z,13.50
2019-04-28T14:47:05.362Z,13.70
2019-04-28T14:48:12.137Z,13.80
2019-04-28T14:49:19.232Z,13.90
2019-04-28T14:50:26.111Z,13.70
2019-04-28T14:51:33.001Z,13.70
2019-04-28T14:52:39.833Z,13.90
2019-04-28T14:53:46.834Z,14.00
2019-04-28T14:54:53.795Z,14.20
2019-04-28T14:56:00.616Z,14.30
2019-04-28T14:57:07.794Z,14.40
2019-04-28T14:58:14.864Z,14.50
2019-04-28T14:59:22.051Z,14.50
2019-04-28T15:00:34.361Z,14.30
2019-04-28T15:02:09.690Z,14.30
2019-04-28T15:03:17.289Z,14.60